createdAt,value
2018-07-12T00:04:28.718Z,90.80
2018-07-12T00:09:30.865Z,90.80
2018-07-12T00:14:33.129Z,90.80
2018-07-12T00:19:35.283Z,90.90
2018-07-12T00:24:37.429Z,90.90
2018-07-12T00:29:39.583Z,91.00
2018-07-12T00:34:41.725Z,91.00
2018-07-12T00:39:43.884Z,91.00
2018-07-12T00:44:46.046Z,90.90
2018-07-12T00:49:48.208Z,90.90
2018-07-12T00:54:50.362Z,90.90
2018-07-12T00:59:52.509Z,90.90
2018-07-12T01:04:54.666Z,90.90
2018-07-12T01:09:56.813Z,90.80
2018-07-12T01:14:58.965Z,90.70
2018-07-12T01:20:01.127Z,90.60
2018-07-12T01:25:03.276Z,90.50
2018-07-12T01:30:05.424Z,90.50
2018-07-12T01:35:07.588Z,90.50
2018-07-12T01:40:09.756Z,90.50
2018-07-12T01:45:11.909Z,90.50
2018-07-12T01:50:14.077Z,90.70
2018-07-12T01:55:16.230Z,90.80
2018-07-12T02:00:18.381Z,90.80
2018-07-12T02:05:20.534Z,91.00
2018-07-12T02:10:22.713Z,91.00
2018-07-12T02:15:24.861Z,91.00
2018-07-12T02:20:27.012Z,91.10
2018-07-12T02:25:29.161Z,91.20
2018-07-12T02:30:31.313Z,91.20
2018-07-12T02:35:33.453Z,91.20
2018-07-12T02:40:35.599Z,91.10
2018-07-12T02:45:37.753Z,91.10
2018-07-12T02:50:39.898Z,91.00
2018-07-12T02:55:42.056Z,91.10
2018-07-12T03:00:44.209Z,91.10
2018-07-12T03:05:46.357Z,91.10
2018-07-12T03:10:48.514Z,91.20
2018-07-12T03:15:50.669Z,91.10
2018-07-12T03:20:52.821Z,91.10
2018-07-12T03:25:55.193Z,91.10
2018-07-12T03:30:57.349Z,91.00
2018-07-12T03:35:59.497Z,91.00
2018-07-12T03:41:01.650Z,91.10
2018-07-12T03:46:03.800Z,91.20
2018-07-12T03:51:05.949Z,91.20
2018-07-12T03:56:08.107Z,91.20
2018-07-12T04:01:10.254Z,91.30
2018-07-12T04:06:12.409Z,91.30
2018-07-12T04:11:14.694Z,91.30
2018-07-12T04:16:16.845Z,91.30
2018-07-12T04:21:19.889Z,91.30
2018-07-12T04:26:22.044Z,91.40
2018-07-12T04:31:24.189Z,91.40
2018-07-12T04:36:26.349Z,91.30
2018-07-12T04:41:28.525Z,91.40
2018-07-12T04:46:30.689Z,91.40
2018-07-12T04:51:32.846Z,91.50
2018-07-12T04:56:35.000Z,91.40
2018-07-12T05:01:37.157Z,91.40
2018-07-12T05:06:39.318Z,91.40
2018-07-12T05:11:41.473Z,91.30
2018-07-12T05:16:43.629Z,91.70
2018-07-12T05:21:45.785Z,91.40
2018-07-12T05:26:47.942Z,91.50
2018-07-12T05:31:50.104Z,91.50
2018-07-12T05:36:58.513Z,91.40
2018-07-12T05:42:01.582Z,91.50
2018-07-12T05:47:04.693Z,91.60
2018-07-12T05:52:07.767Z,91.70
2018-07-12T05:57:10.839Z,91.70
2018-07-12T06:02:22.774Z,91.60
2018-07-12T06:07:30.208Z,91.60
2018-07-12T06:12:33.282Z,91.60
2018-07-12T06:17:36.345Z,91.60
2018-07-12T06:22:39.414Z,91.60
2018-07-12T06:27:42.493Z,91.50
2018-07-12T06:32:45.710Z,91.50
2018-07-12T06:37:48.786Z,91.60
2018-07-12T06:42:51.853Z,91.50
2018-07-12T06:47:54.922Z,91.50
2018-07-12T06:52:58.063Z,91.30
2018-07-12T07:03:10.277Z,91.20
2018-07-12T07:08:13.557Z,91.30
2018-07-12T07:13:16.626Z,91.50
2018-07-12T07:18:19.693Z,91.50
2018-07-12T07:23:22.760Z,91.50
2018-07-12T07:28:25.881Z,91.40
2018-07-12T07:33:28.949Z,91.50
2018-07-12T07:38:32.025Z,91.40
2018-07-12T07:43:35.089Z,91.30
2018-07-12T07:48:39.202Z,91.20
2018-07-12T07:53:42.272Z,90.90
2018-07-12T07:58:45.349Z,91.00
2018-07-12T08:03:48.417Z,90.70
2018-07-12T08:08:51.483Z,90.40
2018-07-12T08:13:55.546Z,90.50
2018-07-12T08:18:58.613Z,90.30
2018-07-12T08:24:01.697Z,90.00
2018-07-12T08:29:04.854Z,88.90
2018-07-12T08:34:07.929Z,88.20
2018-07-12T08:39:11.002Z,88.40
2018-07-12T08:44:14.061Z,87.50
2018-07-12T08:49:17.545Z,86.10
2018-07-12T08:54:20.636Z,86.50
2018-07-12T08:59:23.725Z,86.70
2018-07-12T09:04:26.817Z,86.70
2018-07-12T09:09:29.906Z,86.50
2018-07-12T09:14:33.029Z,86.10
2018-07-12T09:19:36.114Z,85.00
2018-07-12T09:24:39.197Z,84.60
2018-07-12T09:29:42.282Z,83.00
2018-07-12T09:34:45.388Z,81.30
2018-07-12T09:39:48.478Z,82.20
2018-07-12T09:44:51.617Z,82.40
2018-07-12T09:49:54.686Z,82.30
2018-07-12T09:54:57.815Z,82.70
2018-07-12T10:00:01.030Z,81.50
2018-07-12T10:05:04.109Z,80.10
2018-07-12T10:10:07.193Z,79.90
2018-07-12T10:15:11.162Z,79.80
2018-07-12T10:20:14.234Z,80.10
2018-07-12T10:25:17.308Z,79.30
2018-07-12T10:30:20.398Z,78.10
2018-07-12T10:35:23.469Z,78.60
2018-07-12T10:40:26.561Z,77.90
2018-07-12T10:45:29.650Z,76.30
2018-07-12T10:50:32.738Z,76.50
2018-07-12T10:55:35.825Z,74.70
2018-07-12T11:00:38.918Z,73.60
2018-07-12T11:05:41.995Z,73.70
2018-07-12T11:10:45.061Z,72.70
2018-07-12T11:15:48.773Z,72.80
2018-07-12T11:20:51.794Z,72.60
2018-07-12T11:25:54.878Z,72.00
2018-07-12T11:31:02.511Z,71.80
2018-07-12T11:36:06.090Z,71.10
2018-07-12T11:41:09.473Z,70.30
2018-07-12T11:46:13.767Z,70.50
2018-07-12T11:51:16.841Z,70.20
2018-07-12T11:56:19.908Z,68.30
2018-07-12T12:01:23.823Z,67.00
2018-07-12T12:06:26.860Z,66.10
2018-07-12T12:11:29.929Z,67.60
2018-07-12T12:16:33.014Z,69.60
2018-07-12T12:21:36.089Z,68.30
2018-07-12T12:26:39.173Z,67.40
2018-07-12T12:31:42.262Z,66.60
2018-07-12T12:36:45.349Z,67.10
2018-07-12T12:41:48.462Z,70.70
2018-07-12T12:46:51.517Z,73.70
2018-07-12T12:51:54.701Z,75.80
2018-07-12T12:56:59.158Z,76.50
2018-07-12T13:02:02.229Z,78.00
2018-07-12T13:07:05.317Z,79.00
2018-07-12T13:12:08.800Z,79.40
2018-07-12T13:17:11.862Z,79.80
2018-07-12T13:22:14.970Z,84.40
2018-07-12T13:27:18.095Z,85.20
2018-07-12T13:32:21.309Z,85.40
2018-07-12T13:37:24.428Z,86.30
2018-07-12T13:42:27.513Z,87.70
2018-07-12T13:47:30.673Z,89.10
2018-07-12T13:52:33.766Z,90.20
2018-07-12T13:57:36.872Z,90.60
2018-07-12T14:02:39.985Z,91.20
2018-07-12T14:07:43.072Z,91.10
2018-07-12T14:12:46.181Z,90.80
2018-07-12T14:17:49.264Z,90.40
2018-07-12T14:22:52.313Z,87.80
2018-07-12T14:27:56.001Z,87.60
2018-07-12T14:32:59.117Z,87.80
2018-07-12T14:38:02.153Z,86.20
2018-07-12T14:43:05.293Z,82.80
2018-07-12T14:48:08.618Z,82.00
2018-07-12T14:53:11.664Z,82.10
2018-07-12T14:58:14.814Z,82.20
2018-07-12T15:03:17.877Z,81.50
2018-07-12T15:08:20.933Z,80.50
2018-07-12T15:13:24.000Z,80.50
2018-07-12T15:18:27.076Z,80.00
2018-07-12T15:23:30.248Z,78.60
2018-07-12T15:28:33.565Z,76.60
2018-07-12T15:33:36.645Z,75.20
2018-07-12T15:38:39.713Z,74.30
2018-07-12T15:43:42.766Z,72.50
2018-07-12T15:48:45.834Z,70.60
2018-07-12T15:53:48.889Z,69.20
2018-07-12T15:58:51.933Z,69.10
2018-07-12T16:04:01.674Z,69.90
2018-07-12T16:09:07.537Z,69.50
2018-07-12T16:14:10.609Z,69.90
2018-07-12T16:19:13.666Z,69.40
2018-07-12T16:24:16.724Z,68.70
2018-07-12T16:29:19.913Z,70.00
2018-07-12T16:34:22.978Z,69.60
2018-07-12T16:39:27.066Z,70.60
2018-07-12T16:44:30.109Z,70.10
2018-07-12T16:49:33.165Z,68.80
2018-07-12T16:54:36.537Z,68.30
2018-07-12T16:59:39.529Z,68.60
2018-07-12T17:04:42.578Z,70.60
2018-07-12T17:09:45.629Z,71.30
2018-07-12T17:14:48.693Z,71.80
2018-07-12T17:19:51.793Z,72.20
2018-07-12T17:24:54.841Z,71.80
2018-07-12T17:30:00.890Z,71.00
2018-07-12T17:35:04.017Z,70.90
2018-07-12T17:40:07.073Z,70.50
2018-07-12T17:45:10.123Z,71.50
2018-07-12T17:50:13.203Z,71.30
2018-07-12T17:55:16.349Z,70.70
2018-07-12T18:00:19.424Z,70.70
2018-07-12T18:05:22.679Z,72.20
2018-07-12T18:10:25.921Z,71.30
2018-07-12T18:15:29.040Z,70.70
2018-07-12T18:20:32.081Z,70.10
2018-07-12T18:25:35.162Z,70.30
2018-07-12T18:30:38.257Z,70.90
2018-07-12T18:35:41.312Z,71.90
2018-07-12T18:40:44.378Z,71.60
2018-07-12T18:45:47.424Z,71.50
2018-07-12T18:50:50.549Z,72.80
2018-07-12T18:55:53.725Z,73.20
2018-07-12T19:00:56.756Z,73.30
2018-07-12T19:05:59.850Z,75.50
2018-07-12T19:11:03.054Z,76.30
2018-07-12T19:16:06.097Z,76.30
2018-07-12T19:21:09.145Z,77.30
2018-07-12T19:26:12.250Z,78.20
2018-07-12T19:31:15.295Z,78.70
2018-07-12T19:36:18.357Z,79.20
2018-07-12T19:41:21.458Z,79.40
2018-07-12T19:46:24.521Z,79.60
2018-07-12T19:51:27.577Z,80.20
2018-07-12T19:56:30.617Z,80.40
2018-07-12T20:01:33.811Z,81.10
2018-07-12T20:06:36.858Z,81.60
2018-07-12T20:11:40.280Z,82.10
2018-07-12T20:16:43.341Z,82.40
2018-07-12T20:21:46.409Z,82.30
2018-07-12T20:26:49.474Z,82.70
2018-07-12T20:31:52.553Z,82.80
2018-07-12T20:36:55.919Z,82.80
2018-07-12T20:41:58.999Z,83.00
2018-07-12T20:47:02.078Z,83.40
2018-07-12T20:52:05.257Z,83.30
2018-07-12T20:57:08.330Z,83.40
2018-07-12T21:02:11.557Z,83.60
2018-07-12T21:07:14.677Z,84.60
2018-07-12T21:12:17.733Z,84.20
2018-07-12T21:17:20.840Z,85.30
2018-07-12T21:22:23.902Z,84.80
2018-07-12T21:27:26.969Z,85.40
2018-07-12T21:32:30.026Z,85.50
2018-07-12T21:37:33.092Z,85.70
2018-07-12T21:42:36.145Z,85.90
2018-07-12T21:47:39.197Z,85.80
2018-07-12T21:52:42.249Z,86.10
2018-07-12T21:57:45.313Z,86.20
2018-07-12T22:02:48.405Z,86.00
2018-07-12T22:08:04.835Z,85.60
2018-07-12T22:13:07.956Z,85.90
2018-07-12T22:18:11.270Z,86.10
2018-07-12T22:23:14.325Z,86.00
2018-07-12T22:28:17.441Z,85.70
2018-07-12T22:33:20.481Z,85.80
2018-07-12T22:38:23.544Z,85.40
2018-07-12T22:43:26.597Z,84.70
2018-07-12T22:48:29.869Z,85.10
2018-07-12T22:53:32.729Z,85.00
2018-07-12T22:58:35.808Z,85.60
2018-07-12T23:03:38.873Z,85.90
2018-07-12T23:08:41.945Z,85.70
2018-07-12T23:13:45.037Z,86.00
2018-07-12T23:18:48.120Z,85.80
2018-07-12T23:23:51.187Z,85.60
2018-07-12T23:28:54.260Z,85.10
2018-07-12T23:33:57.340Z,85.20
2018-07-12T23:39:00.409Z,85.20
2018-07-12T23:44:03.501Z,85.10
2018-07-12T23:49:06.557Z,84.70
2018-07-12T23:54:09.608Z,84.60
2018-07-12T23:59:12.681Z,84.70
